createdAt,value
2022-08-04T00:02:21.647Z,98581.33
2022-08-04T00:04:53.554Z,98584.88
2022-08-04T00:07:44.927Z,98586.58
2022-08-04T00:10:16.636Z,98585.80
2022-08-04T00:12:47.446Z,98586.54
2022-08-04T00:15:16.643Z,98586.59
2022-08-04T00:17:55.200Z,98583.71
2022-08-04T00:20:24.662Z,98584.24
2022-08-04T00:22:52.960Z,98586.21
2022-08-04T00:25:19.830Z,98584.02
2022-08-04T00:27:46.725Z,98585.52
2022-08-04T00:30:13.303Z,98584.34
2022-08-04T00:32:43.218Z,98580.23
2022-08-04T00:35:14.775Z,98586.61
2022-08-04T00:37:44.906Z,98587.66
2022-08-04T00:40:21.963Z,98583.94
2022-08-04T00:42:59.025Z,98585.68
2022-08-04T00:46:15.843Z,98584.44
2022-08-04T00:49:01.700Z,98582.09
2022-08-04T00:51:47.101Z,98584.98
2022-08-04T00:54:23.962Z,98592.20
2022-08-04T00:57:09.309Z,98590.15
2022-08-04T01:00:12.177Z,98590.61
2022-08-04T01:02:50.625Z,98590.59
2022-08-04T01:05:55.090Z,98589.73
2022-08-04T01:08:55.839Z,98591.10
2022-08-04T01:11:27.101Z,98589.98
2022-08-04T01:14:12.171Z,98589.61
2022-08-04T01:16:49.563Z,98590.73
2022-08-04T01:19:45.004Z,98593.88
2022-08-04T01:22:32.917Z,98593.52
2022-08-04T01:25:17.996Z,98590.89
2022-08-04T01:27:53.100Z,98588.30
2022-08-04T01:30:21.141Z,98587.86
2022-08-04T01:32:53.817Z,98590.77
2022-08-04T01:35:47.481Z,98587.37
2022-08-04T01:38:33.348Z,98588.94
2022-08-04T01:41:04.626Z,98586.52
2022-08-04T01:43:33.511Z,98587.98
2022-08-04T01:46:03.647Z,98581.44
2022-08-04T01:48:31.010Z,98583.59
2022-08-04T01:51:06.662Z,98582.96
2022-08-04T01:53:35.783Z,98576.29
2022-08-04T01:56:04.964Z,98579.15
2022-08-04T01:58:34.070Z,98581.35
2022-08-04T02:01:08.482Z,98579.10
2022-08-04T02:04:21.987Z,98581.16
2022-08-04T02:06:40.009Z,98580.91
2022-08-04T02:09:17.397Z,98579.95
2022-08-04T02:11:58.923Z,98580.64
2022-08-04T02:14:30.326Z,98581.53
2022-08-04T02:16:57.297Z,98579.52
2022-08-04T02:19:40.491Z,98578.29
2022-08-04T02:22:09.165Z,98583.48
2022-08-04T02:24:45.752Z,98582.90
2022-08-04T02:27:14.696Z,98581.27
2022-08-04T02:29:51.958Z,98574.79
2022-08-04T02:32:28.806Z,98572.23
2022-08-04T02:35:03.689Z,98572.67
2022-08-04T02:37:34.098Z,98570.47
2022-08-04T02:40:04.651Z,98571.21
2022-08-04T02:42:33.186Z,98573.35
2022-08-04T02:45:01.081Z,98572.48
2022-08-04T02:48:30.659Z,98571.17
2022-08-04T02:50:29.100Z,98566.80
2022-08-04T02:53:00.766Z,98566.08
2022-08-04T02:55:29.842Z,98567.13
2022-08-04T02:57:59.085Z,98568.89
2022-08-04T03:00:26.755Z,98572.40
2022-08-04T03:03:09.738Z,98574.63
2022-08-04T03:06:21.073Z,98573.34
2022-08-04T03:09:12.587Z,98572.64
2022-08-04T03:12:10.543Z,98571.27
2022-08-04T03:14:55.211Z,98574.64
2022-08-04T03:17:53.246Z,98572.13
2022-08-04T03:20:40.506Z,98574.51
2022-08-04T03:23:29.076Z,98578.46
2022-08-04T03:26:14.185Z,98575.92
2022-08-04T03:28:53.087Z,98574.30
2022-08-04T03:32:01.198Z,98574.95
2022-08-04T03:34:36.592Z,98578.64
2022-08-04T03:37:12.102Z,98582.04
2022-08-04T03:40:16.263Z,98581.05
2022-08-04T03:43:57.516Z,98586.77
2022-08-04T03:46:09.936Z,98583.12
2022-08-04T03:49:14.472Z,98584.94
2022-08-04T03:51:59.634Z,98587.02
2022-08-04T03:54:45.334Z,98586.07
2022-08-04T03:57:45.702Z,98587.27
2022-08-04T04:00:21.416Z,98591.27
2022-08-04T04:03:28.166Z,98589.27
2022-08-04T04:06:22.991Z,98585.55
2022-08-04T04:09:20.760Z,98583.05
2022-08-04T04:11:57.251Z,98584.60
2022-08-04T04:14:48.984Z,98582.97
2022-08-04T04:17:37.646Z,98582.73
2022-08-04T04:20:49.800Z,98581.73
2022-08-04T04:23:40.571Z,98582.14
2022-08-04T04:26:26.840Z,98579.42
2022-08-04T04:29:05.823Z,98575.84
2022-08-04T04:31:52.008Z,98579.52
2022-08-04T04:34:46.249Z,98578.16
2022-08-04T04:37:25.432Z,98585.06
2022-08-04T04:40:30.072Z,98585.42
2022-08-04T04:43:18.635Z,98581.52
2022-08-04T04:45:55.944Z,98592.07
2022-08-04T04:48:44.476Z,98588.41
2022-08-04T04:51:28.855Z,98590.54
2022-08-04T04:54:34.291Z,98593.78
2022-08-04T04:57:18.686Z,98592.91
2022-08-04T05:00:02.354Z,98594.69
2022-08-04T05:02:28.932Z,98597.17
2022-08-04T05:05:11.354Z,98597.09
2022-08-04T05:07:56.157Z,98596.04
2022-08-04T05:10:44.804Z,98593.60
2022-08-04T05:14:34.917Z,98594.77
2022-08-04T05:16:22.440Z,98597.58
2022-08-04T05:18:58.472Z,98598.88
2022-08-04T05:21:42.331Z,98600.83
2022-08-04T05:24:14.051Z,98595.63
2022-08-04T05:26:48.735Z,98599.44
2022-08-04T05:29:37.400Z,98596.03
2022-08-04T05:32:13.316Z,98598.41
2022-08-04T05:34:45.288Z,98593.95
2022-08-04T05:37:17.500Z,98593.92
2022-08-04T05:39:48.494Z,98595.52
2022-08-04T05:42:16.638Z,98598.83
2022-08-04T05:44:50.463Z,98597.73
2022-08-04T05:47:18.601Z,98599.40
2022-08-04T05:49:45.840Z,98598.80
2022-08-04T05:52:30.281Z,98596.42
2022-08-04T05:54:59.104Z,98596.55
2022-08-04T05:57:27.065Z,98597.47
2022-08-04T05:59:55.858Z,98595.83
2022-08-04T06:02:24.709Z,98596.92
2022-08-04T06:04:53.365Z,98596.21
2022-08-04T06:07:20.477Z,98598.33
2022-08-04T06:09:47.849Z,98600.02
2022-08-04T06:12:35.218Z,98599.75
2022-08-04T06:15:02.840Z,98602.34
2022-08-04T06:18:33.081Z,98599.72
2022-08-04T06:20:23.921Z,98598.94
2022-08-04T06:22:55.593Z,98600.89
2022-08-04T06:25:31.504Z,98599.39
2022-08-04T06:27:58.969Z,98597.23
2022-08-04T06:30:28.493Z,98600.02
2022-08-04T06:33:04.260Z,98601.33
2022-08-04T06:35:33.337Z,98598.09
2022-08-04T06:38:01.728Z,98593.39
2022-08-04T06:40:31.736Z,98595.94
2022-08-04T06:43:01.681Z,98598.39
2022-08-04T06:45:29.415Z,98595.80
2022-08-04T06:47:56.803Z,98595.85
2022-08-04T06:51:24.373Z,98597.59
2022-08-04T06:53:12.282Z,98592.23
2022-08-04T06:55:40.934Z,98592.98
2022-08-04T06:58:08.533Z,98593.14
2022-08-04T07:00:38.064Z,98594.11
2022-08-04T07:03:05.637Z,98592.95
2022-08-04T07:05:32.460Z,98592.71
2022-08-04T07:07:59.646Z,98593.56
2022-08-04T07:10:29.791Z,98591.95
2022-08-04T07:12:58.075Z,98590.90
2022-08-04T07:15:28.673Z,98589.67
2022-08-04T07:17:56.854Z,98586.69
2022-08-04T07:20:35.920Z,98583.69
2022-08-04T07:23:07.488Z,98586.34
2022-08-04T07:25:59.532Z,98585.45
2022-08-04T07:28:32.884Z,98586.38
2022-08-04T07:30:59.381Z,98584.39
2022-08-04T07:33:26.580Z,98581.73
2022-08-04T07:36:04.569Z,98583.08
2022-08-04T07:38:37.855Z,98578.50
2022-08-04T07:44:05.707Z,98575.92
2022-08-04T07:46:32.649Z,98573.24
2022-08-04T07:49:02.946Z,98575.55
2022-08-04T07:51:31.019Z,98571.21
2022-08-04T07:53:58.815Z,98572.55
2022-08-04T07:56:26.947Z,98573.80
2022-08-04T07:58:54.581Z,98570.73
2022-08-04T08:01:22.944Z,98568.71
2022-08-04T08:03:52.843Z,98565.95
2022-08-04T08:06:31.726Z,98563.95
2022-08-04T08:09:00.313Z,98563.95
2022-08-04T08:12:38.043Z,98554.63
2022-08-04T08:14:16.924Z,98558.85
2022-08-04T08:16:43.893Z,98554.14
2022-08-04T08:19:11.050Z,98556.36
2022-08-04T08:21:59.219Z,98558.43
2022-08-04T08:24:24.414Z,98560.23
2022-08-04T08:26:51.184Z,98558.86
2022-08-04T08:29:19.896Z,98559.55
2022-08-04T08:31:56.216Z,98560.23
2022-08-04T08:34:27.829Z,98561.22
2022-08-04T08:37:00.748Z,98561.59
2022-08-04T08:39:53.327Z,98557.88
2022-08-04T08:42:47.678Z,98560.05
2022-08-04T08:45:35.588Z,98557.44
2022-08-04T08:48:43.150Z,98558.08
2022-08-04T08:51:40.610Z,98555.80
2022-08-04T08:54:32.551Z,98555.16
2022-08-04T08:57:08.300Z,98552.83
2022-08-04T09:00:00.622Z,98556.63
2022-08-04T09:02:42.421Z,98550.66
2022-08-04T09:05:21.245Z,98549.51
2022-08-04T09:08:21.200Z,98554.55
2022-08-04T09:10:49.136Z,98558.05
2022-08-04T09:13:30.249Z,98553.19
2022-08-04T09:16:02.664Z,98549.38
2022-08-04T09:18:56.698Z,98547.39
2022-08-04T09:21:37.376Z,98553.38
2022-08-04T09:24:34.724Z,98551.54
2022-08-04T09:27:00.679Z,98541.66
2022-08-04T09:29:39.383Z,98544.44
2022-08-04T09:32:32.827Z,98548.15
2022-08-04T09:35:15.412Z,98544.92
2022-08-04T09:37:48.635Z,98544.77
2022-08-04T09:40:52.772Z,98546.30
2022-08-04T09:43:30.972Z,98536.86
2022-08-04T09:46:22.846Z,98541.21
2022-08-04T09:48:58.399Z,98537.61
2022-08-04T09:51:58.597Z,98541.40
2022-08-04T09:54:44.007Z,98539.02
2022-08-04T09:57:24.725Z,98536.38
2022-08-04T09:59:58.734Z,98535.04
2022-08-04T10:02:26.875Z,98534.44
2022-08-04T10:04:56.886Z,98535.77
2022-08-04T10:08:02.089Z,98534.33
2022-08-04T10:10:45.417Z,98531.29
2022-08-04T10:13:36.463Z,98529.30
2022-08-04T10:16:09.052Z,98531.71
2022-08-04T10:19:15.556Z,98528.52
2022-08-04T10:22:27.097Z,98525.30
2022-08-04T10:24:54.212Z,98524.04
2022-08-04T10:27:28.159Z,98521.05
2022-08-04T10:30:05.708Z,98524.45
2022-08-04T10:32:43.174Z,98524.52
2022-08-04T10:35:13.374Z,98521.96
2022-08-04T10:38:00.419Z,98517.39
2022-08-04T10:40:33.599Z,98515.45
2022-08-04T10:43:35.410Z,98512.72
2022-08-04T10:46:07.614Z,98515.66
2022-08-04T10:48:40.705Z,98515.70
2022-08-04T10:51:26.489Z,98524.76
2022-08-04T10:53:58.341Z,98518.02
2022-08-04T10:56:56.796Z,98522.98
2022-08-04T10:59:30.022Z,98513.98
2022-08-04T11:02:06.267Z,98509.33
2022-08-04T11:04:47.715Z,98508.43
2022-08-04T11:07:17.319Z,98509.48
2022-08-04T11:09:45.090Z,98503.66
2022-08-04T11:12:19.717Z,98506.50
2022-08-04T11:14:56.073Z,98503.87
2022-08-04T11:17:28.050Z,98510.27
2022-08-04T11:20:34.182Z,98510.30
2022-08-04T11:23:05.987Z,98511.07
2022-08-04T11:25:51.843Z,98509.59
2022-08-04T11:29:00.753Z,98507.95
2022-08-04T11:31:39.485Z,98506.56
2022-08-04T11:34:19.623Z,98499.63
2022-08-04T11:36:59.066Z,98500.39
2022-08-04T11:39:41.451Z,98508.83
2022-08-04T11:42:20.408Z,98504.83
2022-08-04T11:44:54.950Z,98506.83
2022-08-04T11:47:24.460Z,98500.20
2022-08-04T11:50:33.380Z,98498.83
2022-08-04T11:53:01.702Z,98497.86
2022-08-04T11:55:31.398Z,98491.17
2022-08-04T11:57:58.654Z,98488.70
2022-08-04T12:00:28.730Z,98486.84
2022-08-04T12:02:55.303Z,98485.18
2022-08-04T12:05:36.693Z,98483.11
2022-08-04T12:08:22.486Z,98481.06
2022-08-04T12:11:24.363Z,98479.30
2022-08-04T12:14:18.546Z,98479.37
2022-08-04T12:16:45.323Z,98472.95
2022-08-04T12:19:58.700Z,98472.25
2022-08-04T12:22:36.277Z,98475.51
2022-08-04T12:25:10.099Z,98475.61
2022-08-04T12:27:41.831Z,98471.23
2022-08-04T12:31:01.293Z,98471.98
2022-08-04T12:33:09.002Z,98468.33
2022-08-04T12:36:10.200Z,98472.16
2022-08-04T12:38:46.998Z,98474.98
2022-08-04T12:41:21.046Z,98468.62
2022-08-04T12:43:47.618Z,98466.55
2022-08-04T12:46:27.001Z,98467.89
2022-08-04T12:49:01.760Z,98459.21
2022-08-04T12:52:06.581Z,98455.88
2022-08-04T12:54:28.850Z,98452.92
2022-08-04T12:56:59.062Z,98452.89
2022-08-04T12:59:26.025Z,98448.78
2022-08-04T13:02:09.815Z,98445.52
2022-08-04T13:04:42.788Z,98443.59
2022-08-04T13:07:26.688Z,98446.61
2022-08-04T13:09:53.405Z,98443.50
2022-08-04T13:12:32.759Z,98443.84
2022-08-04T13:15:10.844Z,98441.20
2022-08-04T13:17:50.969Z,98432.42
2022-08-04T13:20:25.919Z,98429.95
2022-08-04T13:23:06.342Z,98428.99
2022-08-04T13:26:44.935Z,98432.45
2022-08-04T13:28:28.374Z,98428.86
2022-08-04T13:31:07.521Z,98428.03
2022-08-04T13:33:37.776Z,98421.39
2022-08-04T13:36:07.161Z,98423.86
2022-08-04T13:38:36.412Z,98420.08
2022-08-04T13:41:05.708Z,98416.92
2022-08-04T13:44:15.821Z,98417.16
2022-08-04T13:46:28.719Z,98420.02
2022-08-04T13:49:25.983Z,98417.66
2022-08-04T13:51:58.488Z,98413.62
2022-08-04T13:54:45.992Z,98414.11
2022-08-04T13:57:19.745Z,98412.11
2022-08-04T13:59:53.574Z,98418.50
2022-08-04T14:02:45.133Z,98415.39
2022-08-04T14:05:29.516Z,98412.21
2022-08-04T14:08:23.691Z,98409.85
2022-08-04T14:10:57.496Z,98403.91
2022-08-04T14:13:41.323Z,98404.92
2022-08-04T14:16:17.615Z,98400.41
2022-08-04T14:18:45.487Z,98401.63
2022-08-04T14:21:14.160Z,98398.40
2022-08-04T14:23:49.859Z,98396.18
2022-08-04T14:26:33.788Z,98388.62
2022-08-04T14:29:27.692Z,98392.38
2022-08-04T14:32:05.925Z,98390.67
2022-08-04T14:34:41.766Z,98389.90
2022-08-04T14:37:17.163Z,98388.90
2022-08-04T14:40:07.807Z,98386.61
2022-08-04T14:42:54.995Z,98387.00
2022-08-04T14:45:33.553Z,98386.85
2022-08-04T14:48:02.247Z,98381.80
2022-08-04T14:50:41.191Z,98382.19
2022-08-04T14:53:21.977Z,98380.48
2022-08-04T14:56:00.048Z,98378.27
2022-08-04T14:58:36.762Z,98374.80
2022-08-04T15:01:11.220Z,98373.94
2022-08-04T15:03:50.518Z,98376.02
2022-08-04T15:06:22.541Z,98373.73
2022-08-04T15:08:51.173Z,98369.22
2022-08-04T15:11:23.406Z,98372.74
2022-08-04T15:13:52.487Z,98375.02
2022-08-04T15:16:20.350Z,98371.73
2022-08-04T15:18:49.623Z,98380.21
2022-08-04T15:21:17.343Z,98381.46
2022-08-04T15:23:44.344Z,98378.31
2022-08-04T15:26:19.613Z,98377.15
2022-08-04T15:28:53.413Z,98382.11
2022-08-04T15:32:08.014Z,98374.80
2022-08-04T15:34:09.205Z,98376.92
2022-08-04T15:36:57.010Z,98374.11
2022-08-04T15:39:27.166Z,98369.58
2022-08-04T15:42:15.020Z,98371.46
2022-08-04T15:45:21.723Z,98369.61
2022-08-04T15:48:03.488Z,98370.61
2022-08-04T15:50:31.336Z,98367.13
2022-08-04T15:53:00.918Z,98366.75
2022-08-04T15:55:37.032Z,98367.27
2022-08-04T15:58:05.215Z,98362.27
2022-08-04T16:00:50.540Z,98365.02
2022-08-04T16:03:58.106Z,98367.27
2022-08-04T16:06:22.150Z,98365.89
2022-08-04T16:08:57.299Z,98364.04
2022-08-04T16:11:31.785Z,98360.44
2022-08-04T16:13:58.758Z,98359.08
2022-08-04T16:16:46.016Z,98358.59
2022-08-04T16:19:35.834Z,98357.84
2022-08-04T16:22:04.615Z,98353.98
2022-08-04T16:24:39.923Z,98356.70
2022-08-04T16:27:08.630Z,98356.86
2022-08-04T16:29:43.207Z,98355.77
2022-08-04T16:32:14.816Z,98358.59
2022-08-04T16:34:55.160Z,98352.64
2022-08-04T16:37:31.474Z,98353.13
2022-08-04T16:40:38.426Z,98352.02
2022-08-04T16:43:08.578Z,98356.29
2022-08-04T16:45:52.329Z,98353.83
2022-08-04T16:48:21.153Z,98350.38
2022-08-04T16:51:04.637Z,98353.67
2022-08-04T16:53:53.008Z,98357.23
2022-08-04T16:56:33.510Z,98356.67
2022-08-04T16:59:12.519Z,98355.87
2022-08-04T17:01:50.187Z,98352.38
2022-08-04T17:04:17.369Z,98352.95
2022-08-04T17:06:45.979Z,98353.66
2022-08-04T17:09:13.741Z,98353.02
2022-08-04T17:11:42.017Z,98352.56
2022-08-04T17:14:08.705Z,98350.98
2022-08-04T17:16:39.377Z,98349.15
2022-08-04T17:19:24.057Z,98350.95
2022-08-04T17:22:11.595Z,98347.05
2022-08-04T17:24:39.908Z,98349.45
2022-08-04T17:28:09.474Z,98349.18
2022-08-04T17:29:54.399Z,98353.23
2022-08-04T17:32:22.457Z,98349.12
2022-08-04T17:35:00.308Z,98352.82
2022-08-04T17:37:41.208Z,98355.09
2022-08-04T17:40:17.993Z,98352.85
2022-08-04T17:42:51.082Z,98353.58
2022-08-04T17:45:50.926Z,98355.15
2022-08-04T17:48:08.455Z,98351.92
2022-08-04T17:50:35.994Z,98356.66
2022-08-04T17:53:12.213Z,98353.29
2022-08-04T17:55:40.581Z,98353.71
2022-08-04T18:01:24.253Z,98352.34
2022-08-04T18:03:53.620Z,98355.21
2022-08-04T18:06:25.543Z,98355.79
2022-08-04T18:08:57.869Z,98357.44
2022-08-04T18:11:29.686Z,98356.77
2022-08-04T18:14:10.179Z,98360.36
2022-08-04T18:16:44.492Z,98363.67
2022-08-04T18:19:12.829Z,98369.06
2022-08-04T18:21:46.478Z,98369.89
2022-08-04T18:24:34.108Z,98371.14
2022-08-04T18:27:15.960Z,98377.39
2022-08-04T18:30:14.500Z,98380.73
2022-08-04T18:32:33.245Z,98382.59
2022-08-04T18:35:05.073Z,98386.95
2022-08-04T18:40:30.240Z,98395.84
2022-08-04T18:43:02.276Z,98397.82
2022-08-04T18:45:34.089Z,98396.42
2022-08-04T18:48:04.108Z,98399.95
2022-08-04T18:51:09.295Z,98404.97
2022-08-04T18:53:35.881Z,98403.45
2022-08-04T18:56:19.922Z,98404.40
2022-08-04T18:58:53.504Z,98408.23
2022-08-04T19:01:21.032Z,98411.41
2022-08-04T19:03:57.766Z,98415.23
2022-08-04T19:06:25.723Z,98415.20
2022-08-04T19:08:53.292Z,98418.54
2022-08-04T19:11:37.988Z,98416.69
2022-08-04T19:14:06.555Z,98422.51
2022-08-04T19:16:40.735Z,98420.64
2022-08-04T19:19:07.686Z,98420.23
2022-08-04T19:21:59.456Z,98423.27
2022-08-04T19:24:32.369Z,98420.21
2022-08-04T19:27:06.562Z,98421.55
2022-08-04T19:29:41.268Z,98427.63
2022-08-04T19:32:14.930Z,98425.27
2022-08-04T19:34:46.084Z,98422.58
2022-08-04T19:37:57.689Z,98423.52
2022-08-04T19:40:07.413Z,98424.02
2022-08-04T19:42:35.182Z,98423.85
2022-08-04T19:45:02.559Z,98421.86
2022-08-04T19:48:12.257Z,98422.31
2022-08-04T19:50:16.501Z,98421.37
2022-08-04T19:52:51.655Z,98426.35
2022-08-04T19:55:37.584Z,98427.48
2022-08-04T19:58:08.555Z,98428.87
2022-08-04T20:04:09.340Z,98428.92
2022-08-04T20:06:10.648Z,98431.91
2022-08-04T20:08:37.214Z,98434.44
2022-08-04T20:11:14.642Z,98432.84
2022-08-04T20:13:42.638Z,98434.89
2022-08-04T20:16:28.687Z,98435.58
2022-08-04T20:19:02.375Z,98438.27
2022-08-04T20:21:55.641Z,98439.33
2022-08-04T20:24:39.483Z,98440.54
2022-08-04T20:27:08.853Z,98439.60
2022-08-04T20:29:40.812Z,98437.53
2022-08-04T20:32:09.974Z,98434.92
2022-08-04T20:34:37.734Z,98432.81
2022-08-04T20:37:07.016Z,98434.71
2022-08-04T20:39:37.006Z,98431.46
2022-08-04T20:42:03.876Z,98437.64
2022-08-04T20:44:30.417Z,98435.13
2022-08-04T20:46:56.933Z,98437.95
2022-08-04T20:49:35.324Z,98438.61
2022-08-04T20:52:12.080Z,98439.17
2022-08-04T20:54:42.722Z,98440.45
2022-08-04T20:57:16.686Z,98441.66
2022-08-04T20:59:50.348Z,98443.02
2022-08-04T21:02:27.634Z,98443.68
2022-08-04T21:04:54.400Z,98443.21
2022-08-04T21:07:21.814Z,98442.20
2022-08-04T21:09:50.776Z,98444.45
2022-08-04T21:12:27.223Z,98445.73
2022-08-04T21:14:56.178Z,98449.85
2022-08-04T21:17:59.415Z,98446.61
2022-08-04T21:20:12.863Z,98448.17
2022-08-04T21:22:40.117Z,98450.07
2022-08-04T21:25:14.528Z,98449.30
2022-08-04T21:27:43.613Z,98449.89
2022-08-04T21:30:24.008Z,98446.44
2022-08-04T21:32:52.303Z,98443.35
2022-08-04T21:35:19.564Z,98444.75
2022-08-04T21:37:58.165Z,98444.23
2022-08-04T21:40:32.685Z,98444.65
2022-08-04T21:43:03.377Z,98447.55
2022-08-04T21:45:36.246Z,98449.19
2022-08-04T21:48:04.893Z,98452.27
2022-08-04T21:50:31.664Z,98453.01
2022-08-04T21:52:59.063Z,98452.98
2022-08-04T21:56:00.268Z,98460.19
2022-08-04T22:00:59.988Z,98457.65
2022-08-04T22:03:53.612Z,98457.52
2022-08-04T22:06:17.550Z,98454.33
2022-08-04T22:08:49.155Z,98453.70
2022-08-04T22:11:49.133Z,98455.13
2022-08-04T22:14:17.329Z,98456.64
2022-08-04T22:16:54.503Z,98458.44
2022-08-04T22:19:23.288Z,98456.08
2022-08-04T22:21:55.666Z,98454.62
2022-08-04T22:24:22.407Z,98451.98
2022-08-04T22:26:49.174Z,98448.96
2022-08-04T22:29:17.646Z,98450.84
2022-08-04T22:31:56.089Z,98451.48
2022-08-04T22:34:25.215Z,98453.85
2022-08-04T22:36:53.876Z,98451.45
2022-08-04T22:39:23.659Z,98449.08
2022-08-04T22:42:04.107Z,98447.46
2022-08-04T22:44:33.384Z,98442.40
2022-08-04T22:47:01.030Z,98440.83
2022-08-04T22:49:31.734Z,98439.61
2022-08-04T22:51:58.967Z,98440.70
2022-08-04T22:54:28.616Z,98441.06
2022-08-04T22:56:57.042Z,98444.18
2022-08-04T22:59:24.401Z,98440.43
2022-08-04T23:01:59.602Z,98436.23
2022-08-04T23:04:29.631Z,98436.56
2022-08-04T23:06:56.511Z,98432.35
2022-08-04T23:09:27.090Z,98433.90
2022-08-04T23:12:27.169Z,98437.51
2022-08-04T23:14:56.546Z,98436.02
2022-08-04T23:17:24.710Z,98437.83
2022-08-04T23:19:57.949Z,98436.00
2022-08-04T23:22:41.541Z,98430.65
2022-08-04T23:25:16.446Z,98430.98
2022-08-04T23:27:51.050Z,98429.42
2022-08-04T23:30:29.504Z,98424.94
2022-08-04T23:32:57.838Z,98425.55
2022-08-04T23:35:24.426Z,98426.01
2022-08-04T23:37:56.868Z,98422.54
2022-08-04T23:40:34.227Z,98424.23
2022-08-04T23:43:12.317Z,98420.42
2022-08-04T23:46:05.090Z,98416.73
2022-08-04T23:48:39.119Z,98414.17
2022-08-04T23:51:13.959Z,98414.58
2022-08-04T23:54:01.881Z,98411.11
2022-08-04T23:56:34.348Z,98412.70
2022-08-04T23:59:03.780Z,98412.71
